Time;durP1;ratioP1;P1;durP2;ratioP2;P2;SDS_P1;SDS_P2;PMS_P1;PMS_P2;Temp;Humidity;BMP_temperature;BMP_pressure;BME280_temperature;BME280_humidity;BME280_pressure;Samples;Min_cycle;Max_cycle;Signal;HPM_P1;HPM_P2
2022/06/16 00:00:26;;;;;;;6.75;3.50;;;19.00;93.80;;;;;;4832583;28;10002123;-73
2022/06/16 00:02:51;;;;;;;5.63;4.00;;;19.00;94.10;;;;;;4995573;28;20762;-73
2022/06/16 00:05:24;;;;;;;8.13;4.20;;;19.00;94.70;;;;;;4995665;28;20042;-72
2022/06/16 00:07:50;;;;;;;8.07;3.67;;;18.90;95.50;;;;;;5003925;28;20162;-72
2022/06/16 00:10:17;;;;;;;13.95;4.43;;;18.90;95.50;;;;;;4996233;28;20502;-72
2022/06/16 00:12:43;;;;;;;7.25;3.50;;;18.80;95.80;;;;;;5003506;28;20582;-72
2022/06/16 00:15:12;;;;;;;7.15;3.60;;;18.80;96.30;;;;;;4998619;28;20108;-73
2022/06/16 00:17:38;;;;;;;10.13;3.50;;;18.70;96.50;;;;;;5011209;28;20121;-72
2022/06/16 00:20:05;;;;;;;6.13;2.90;;;18.70;96.40;;;;;;4992092;28;20030;-72
2022/06/16 00:22:40;;;;;;;5.68;3.10;;;18.70;96.20;;;;;;5003090;28;20044;-73
2022/06/16 00:25:06;;;;;;;5.78;2.78;;;18.70;96.40;;;;;;4998341;28;20088;-72
2022/06/16 00:27:32;;;;;;;7.72;3.40;;;18.60;96.30;;;;;;5000712;28;20065;-72
2022/06/16 00:29:59;;;;;;;4.70;2.65;;;18.60;95.80;;;;;;4994095;28;20490;-72
2022/06/16 00:32:24;;;;;;;6.70;3.20;;;18.60;95.90;;;;;;4988334;28;20692;-72
2022/06/16 00:34:50;;;;;;;7.43;3.10;;;18.60;96.10;;;;;;5022984;28;20128;-72
2022/06/16 00:37:16;;;;;;;4.88;2.60;;;18.60;96.20;;;;;;5014275;28;20125;-73
2022/06/16 00:39:41;;;;;;;11.55;3.00;;;18.50;96.10;;;;;;5024258;28;20021;-72
2022/06/16 00:42:16;;;;;;;8.18;2.85;;;18.40;96.10;;;;;;5024032;28;20076;-72
2022/06/16 00:44:44;;;;;;;8.60;2.90;;;18.40;96.40;;;;;;5019632;28;20070;-72
2022/06/16 00:47:10;;;;;;;8.43;2.70;;;18.40;96.60;;;;;;5016434;28;20117;-72
2022/06/16 00:49:39;;;;;;;7.35;2.78;;;18.30;96.80;;;;;;5025944;28;20112;-72
2022/06/16 00:52:19;;;;;;;4.40;2.80;;;18.20;97.20;;;;;;5017916;28;20113;-72
2022/06/16 00:54:55;;;;;;;5.45;2.50;;;18.10;97.80;;;;;;5025051;28;20095;-73
2022/06/16 00:57:31;;;;;;;5.65;2.80;;;18.10;98.00;;;;;;5026867;28;20559;-73
2022/06/16 00:59:58;;;;;;;8.00;2.90;;;18.00;97.60;;;;;;5020741;28;20013;-73
2022/06/16 01:02:28;;;;;;;8.25;2.85;;;18.00;97.90;;;;;;5021640;28;20481;-72
2022/06/16 01:04:54;;;;;;;6.05;3.10;;;17.80;96.00;;;;;;5022111;28;20093;-72
2022/06/16 01:07:41;;;;;;;4.97;2.88;;;17.70;96.40;;;;;;5019705;28;20116;-72
2022/06/16 01:10:09;;;;;;;7.22;3.05;;;17.70;96.60;;;;;;5017260;28;20036;-73
2022/06/16 01:15:33;;;;;;;7.07;2.83;;;17.60;97.30;;;;;;5023481;28;20083;-73
2022/06/16 01:18:05;;;;;;;8.82;3.38;;;17.50;97.40;;;;;;5016865;28;20029;-73
2022/06/16 01:20:54;;;;;;;7.30;3.10;;;17.50;97.70;;;;;;5017373;28;20038;-73
2022/06/16 01:23:35;;;;;;;4.38;2.92;;;17.40;98.00;;;;;;5021538;28;20133;-72
2022/06/16 01:26:00;;;;;;;7.13;3.03;;;17.40;98.10;;;;;;5021256;28;20026;-73
2022/06/16 01:28:30;;;;;;;7.95;2.90;;;17.50;97.90;;;;;;5013436;28;20365;-72
2022/06/16 01:31:12;;;;;;;10.65;3.08;;;17.50;98.00;;;;;;5022563;28;20033;-73
2022/06/16 01:33:46;;;;;;;9.38;2.85;;;17.40;98.20;;;;;;5021363;28;20057;-73
2022/06/16 01:36:21;;;;;;;8.52;3.17;;;17.40;98.20;;;;;;5020373;28;20026;-72
2022/06/16 01:38:56;;;;;;;5.20;2.92;;;17.40;98.40;;;;;;5024020;28;20025;-73
2022/06/16 01:41:34;;;;;;;7.65;3.22;;;17.40;98.60;;;;;;5027278;28;20037;-73
2022/06/16 01:44:25;;;;;;;7.18;2.97;;;17.30;98.90;;;;;;5020593;28;20041;-73
2022/06/16 01:46:56;;;;;;;11.07;3.30;;;17.30;99.30;;;;;;5017260;28;20034;-73
2022/06/16 01:49:30;;;;;;;13.40;3.63;;;17.20;99.70;;;;;;5014955;28;20032;-73
2022/06/16 01:52:08;;;;;;;5.50;3.20;;;17.20;99.90;;;;;;5019725;28;20116;-73
2022/06/16 01:54:43;;;;;;;5.13;2.75;;;17.20;99.90;;;;;;5016721;28;20025;-73
2022/06/16 01:57:17;;;;;;;3.75;2.80;;;17.20;99.90;;;;;;5019024;28;20025;-73
2022/06/16 01:59:54;;;;;;;7.28;3.13;;;17.20;99.90;;;;;;5014055;28;20034;-73
2022/06/16 02:02:22;;;;;;;4.60;2.92;;;17.20;99.90;;;;;;5018937;28;20105;-73
2022/06/16 02:04:59;;;;;;;5.55;2.92;;;17.20;99.90;;;;;;5019630;28;20057;-73
2022/06/16 02:07:42;;;;;;;5.28;2.92;;;17.20;99.90;;;;;;5016851;28;20400;-73
2022/06/16 02:10:32;;;;;;;3.85;2.80;;;17.10;99.90;;;;;;5010300;28;20063;-74
2022/06/16 02:12:59;;;;;;;4.63;2.67;;;17.00;99.90;;;;;;5025206;28;20414;-73
2022/06/16 02:15:51;;;;;;;5.07;3.10;;;17.00;99.90;;;;;;5024750;28;20043;-74
2022/06/16 02:18:23;;;;;;;8.73;3.10;;;16.90;99.90;;;;;;5025267;28;20033;-74
2022/06/16 02:21:07;;;;;;;6.53;3.10;;;16.90;99.90;;;;;;5018563;28;20018;-73
2022/06/16 02:23:34;;;;;;;6.07;3.13;;;16.90;99.90;;;;;;5025057;28;20449;-73
2022/06/16 02:26:00;;;;;;;4.03;2.90;;;16.90;99.90;;;;;;5019273;28;20049;-73
2022/06/16 02:28:27;;;;;;;4.70;2.97;;;16.90;99.90;;;;;;5012442;28;20025;-73
2022/06/16 02:31:17;;;;;;;5.03;2.70;;;16.90;99.90;;;;;;5024387;28;20065;-73
2022/06/16 02:33:45;;;;;;;9.25;2.80;;;16.90;99.90;;;;;;5019986;28;20049;-73
2022/06/16 02:36:37;;;;;;;4.40;2.70;;;16.80;99.90;;;;;;5016998;28;20489;-73
2022/06/16 02:39:03;;;;;;;2.80;2.55;;;16.70;99.90;;;;;;5018045;28;20069;-73
2022/06/16 02:41:37;;;;;;;6.05;2.95;;;16.60;99.90;;;;;;5022295;28;20084;-73
2022/06/16 02:44:24;;;;;;;5.38;2.65;;;16.60;99.90;;;;;;5021131;28;20029;-73
2022/06/16 02:46:50;;;;;;;4.78;2.80;;;16.50;99.90;;;;;;5025034;28;20454;-73
2022/06/16 02:49:39;;;;;;;4.20;2.60;;;16.50;99.90;;;;;;5016386;28;20056;-73
2022/06/16 02:52:28;;;;;;;4.75;2.95;;;16.50;99.90;;;;;;5018189;28;20037;-73
2022/06/16 02:55:31;;;;;;;4.38;3.03;;;16.40;99.90;;;;;;5010364;28;20044;-73
2022/06/16 02:58:00;;;;;;;3.90;2.95;;;16.20;99.90;;;;;;5024328;28;20033;-73
2022/06/16 03:00:50;;;;;;;5.88;2.78;;;16.20;99.90;;;;;;5018868;28;20033;-73
2022/06/16 03:03:21;;;;;;;5.00;3.30;;;16.20;99.90;;;;;;5025193;28;20493;-73
2022/06/16 03:05:51;;;;;;;4.53;2.97;;;16.10;99.90;;;;;;5032458;28;20037;-73
2022/06/16 03:08:17;;;;;;;4.57;3.00;;;16.10;99.90;;;;;;5016181;28;20030;-73
2022/06/16 03:10:52;;;;;;;6.38;2.92;;;16.10;99.90;;;;;;5032536;28;20025;-73
2022/06/16 03:13:28;;;;;;;5.72;2.90;;;16.10;99.90;;;;;;5033473;28;20028;-74
2022/06/16 03:15:56;;;;;;;4.18;2.95;;;;;;;;;;5026822;28;20025;-73
2022/06/16 03:18:22;;;;;;;3.60;2.90;;;16.00;99.90;;;;;;5020129;28;20117;-74
2022/06/16 03:20:49;;;;;;;3.17;2.63;;;15.90;99.90;;;;;;5028194;28;20481;-74
2022/06/16 03:23:15;;;;;;;4.93;3.38;;;15.90;99.90;;;;;;5031331;28;20029;-74
2022/06/16 03:25:42;;;;;;;4.30;2.95;;;15.90;99.90;;;;;;5028448;28;20124;-73
2022/06/16 03:28:08;;;;;;;6.20;3.20;;;15.80;99.90;;;;;;5023573;28;20029;-74
2022/06/16 03:30:36;;;;;;;7.72;3.38;;;15.80;99.90;;;;;;5026074;28;20593;-74
2022/06/16 03:33:03;;;;;;;5.57;3.63;;;15.80;99.90;;;;;;5024909;28;20497;-74
2022/06/16 03:35:29;;;;;;;4.45;2.90;;;15.80;99.90;;;;;;5027870;28;20052;-74
2022/06/16 03:37:55;;;;;;;4.97;3.35;;;15.90;99.90;;;;;;5033238;28;20021;-74
2022/06/16 03:40:22;;;;;;;5.60;3.60;;;15.90;99.90;;;;;;5026129;28;20108;-74
2022/06/16 03:42:49;;;;;;;3.92;3.35;;;15.90;99.90;;;;;;5028659;28;20025;-75
2022/06/16 03:45:16;;;;;;;6.88;3.53;;;15.90;99.90;;;;;;5028476;28;20080;-73
2022/06/16 03:47:42;;;;;;;5.10;3.38;;;16.00;99.90;;;;;;5024228;28;20919;-73
2022/06/16 03:50:10;;;;;;;4.25;3.35;;;15.90;99.90;;;;;;5023334;28;20506;-73
2022/06/16 03:52:36;;;;;;;5.25;3.60;;;15.90;99.90;;;;;;5023247;28;20033;-73
2022/06/16 03:55:01;;;;;;;7.55;3.75;;;15.90;99.90;;;;;;5023205;28;20033;-73
2022/06/16 03:57:27;;;;;;;5.63;3.35;;;15.90;99.90;;;;;;5030378;28;20112;-73
2022/06/16 03:59:53;;;;;;;6.20;4.03;;;16.00;99.90;;;;;;5029441;28;20067;-73
2022/06/16 04:02:18;;;;;;;7.55;3.53;;;16.00;99.90;;;;;;5030261;28;20036;-73
2022/06/16 04:04:45;;;;;;;4.35;3.25;;;16.00;99.90;;;;;;5024532;28;20036;-73
2022/06/16 04:07:11;;;;;;;3.55;2.90;;;16.00;99.90;;;;;;5024990;28;20030;-73
2022/06/16 04:09:36;;;;;;;6.65;3.35;;;15.90;99.90;;;;;;5014952;28;20029;-73
2022/06/16 04:12:03;;;;;;;6.13;3.80;;;15.90;99.90;;;;;;5029908;28;20033;-73
2022/06/16 04:14:28;;;;;;;4.55;3.13;;;15.90;99.90;;;;;;5017907;28;20110;-73
2022/06/16 04:16:56;;;;;;;8.27;3.53;;;15.90;99.90;;;;;;5022922;28;20380;-73
2022/06/16 04:19:22;;;;;;;4.70;3.60;;;15.80;99.90;;;;;;5022485;28;20041;-73
2022/06/16 04:21:49;;;;;;;5.30;3.63;;;15.90;99.90;;;;;;5024932;28;20048;-73
2022/06/16 04:24:16;;;;;;;6.07;3.05;;;15.90;99.90;;;;;;5022687;28;20471;-73
2022/06/16 04:26:44;;;;;;;5.00;3.33;;;15.90;99.90;;;;;;5019908;28;20065;-74
2022/06/16 04:29:11;;;;;;;4.85;3.40;;;15.90;99.90;;;;;;5015698;28;20064;-74
2022/06/16 04:31:38;;;;;;;6.47;3.50;;;15.90;99.90;;;;;;5026650;28;20025;-73
2022/06/16 04:34:05;;;;;;;5.30;3.60;;;16.00;99.90;;;;;;5020810;28;20045;-73
2022/06/16 04:36:31;;;;;;;8.00;3.97;;;16.00;99.90;;;;;;5028396;28;20025;-73
2022/06/16 04:38:58;;;;;;;4.82;3.20;;;16.00;99.90;;;;;;5026232;28;20026;-73
2022/06/16 04:41:23;;;;;;;5.53;3.10;;;16.00;99.90;;;;;;5018655;28;20030;-74
2022/06/16 04:43:49;;;;;;;4.70;3.05;;;16.00;99.90;;;;;;5021971;28;20040;-73
2022/06/16 04:46:16;;;;;;;6.60;3.15;;;16.10;99.90;;;;;;5026806;28;20060;-74
2022/06/16 04:48:43;;;;;;;5.97;3.15;;;16.10;99.90;;;;;;5014369;28;20021;-74
2022/06/16 04:51:10;;;;;;;5.90;3.55;;;16.20;99.90;;;;;;5023021;28;20035;-74
2022/06/16 04:53:36;;;;;;;12.10;3.67;;;16.30;99.90;;;;;;5025727;28;20072;-74
2022/06/16 04:56:03;;;;;;;6.70;3.42;;;16.40;99.90;;;;;;5023697;28;20037;-73
2022/06/16 04:58:30;;;;;;;5.03;3.47;;;16.40;99.90;;;;;;5023928;28;20113;-74
2022/06/16 05:00:56;;;;;;;5.70;3.33;;;16.50;99.90;;;;;;5014318;28;20049;-74
2022/06/16 05:03:25;;;;;;;3.90;3.15;;;16.60;99.90;;;;;;5019868;28;20025;-73
2022/06/16 05:05:52;;;;;;;6.50;3.55;;;16.60;99.90;;;;;;5024105;28;20022;-73
2022/06/16 05:08:19;;;;;;;6.45;3.03;;;16.70;99.90;;;;;;5011301;28;20105;-73
2022/06/16 05:10:47;;;;;;;4.18;3.53;;;16.70;99.90;;;;;;5017775;28;20022;-75
2022/06/16 05:13:13;;;;;;;6.18;3.45;;;16.80;99.90;;;;;;5023128;28;20059;-73
2022/06/16 05:15:39;;;;;;;5.78;3.13;;;16.80;99.90;;;;;;5021038;28;20045;-73
2022/06/16 05:18:06;;;;;;;5.15;3.30;;;16.90;99.90;;;;;;5010966;28;20528;-74
2022/06/16 05:20:32;;;;;;;3.88;3.15;;;16.90;99.90;;;;;;5019883;28;20025;-74
2022/06/16 05:22:57;;;;;;;4.80;3.40;;;16.90;99.90;;;;;;5023058;28;20481;-74
2022/06/16 05:25:23;;;;;;;4.93;3.08;;;17.00;99.90;;;;;;5021038;28;20041;-74
2022/06/16 05:27:49;;;;;;;8.30;3.40;;;17.00;99.90;;;;;;5020940;28;20029;-74
2022/06/16 05:30:15;;;;;;;4.45;3.17;;;17.10;99.90;;;;;;5005747;28;20073;-74
2022/06/16 05:32:44;;;;;;;4.65;3.22;;;17.10;99.90;;;;;;5012622;28;20030;-74
2022/06/16 05:35:11;;;;;;;5.53;3.42;;;17.20;99.90;;;;;;5015361;28;20108;-74
2022/06/16 05:37:37;;;;;;;5.88;3.55;;;17.30;99.90;;;;;;5016899;28;20108;-74
2022/06/16 05:40:04;;;;;;;6.50;3.80;;;17.30;99.90;;;;;;5019683;28;20176;-73
2022/06/16 05:42:30;;;;;;;4.82;3.55;;;17.50;99.90;;;;;;4670515;28;9999693;-72
2022/06/16 05:44:56;;;;;;;8.13;3.58;;;17.70;99.90;;;;;;5024811;28;20014;-72
2022/06/16 05:47:22;;;;;;;5.95;3.40;;;17.90;99.90;;;;;;5015972;28;20040;-72
2022/06/16 05:49:47;;;;;;;4.70;3.35;;;18.00;99.90;;;;;;5012758;28;20025;-72
2022/06/16 05:52:20;;;;;;;6.40;3.75;;;18.10;99.90;;;;;;5025053;28;20026;-72
2022/06/16 05:54:47;;;;;;;5.85;3.63;;;18.10;99.90;;;;;;5016384;28;20075;-72
2022/06/16 05:57:13;;;;;;;5.90;3.42;;;18.20;99.90;;;;;;5022456;28;20165;-72
2022/06/16 05:59:39;;;;;;;5.78;3.40;;;18.20;99.90;;;;;;5015841;28;20477;-72
2022/06/16 06:02:10;;;;;;;6.65;3.38;;;18.20;99.90;;;;;;5005020;28;20090;-71
2022/06/16 06:04:36;;;;;;;10.68;3.53;;;18.20;99.90;;;;;;5009524;28;20034;-72
2022/06/16 06:07:01;;;;;;;6.97;3.38;;;18.30;99.90;;;;;;5011309;28;20026;-71
2022/06/16 06:17:47;;;;;;;5.38;3.03;;;18.30;99.90;;;;;;5014379;28;20032;-71
2022/06/16 06:20:13;;;;;;;6.10;3.13;;;18.40;99.90;;;;;;5018945;28;20025;-72
2022/06/16 06:22:38;;;;;;;8.27;3.00;;;18.40;99.90;;;;;;5009659;28;20076;-72
2022/06/16 06:25:05;;;;;;;5.05;3.10;;;18.50;99.90;;;;;;5012447;28;20044;-72
2022/06/16 06:27:34;;;;;;;5.57;3.30;;;18.70;99.90;;;;;;5012386;28;20544;-72
2022/06/16 06:30:01;;;;;;;9.02;3.63;;;18.80;99.90;;;;;;5016870;28;20034;-72
2022/06/16 06:32:27;;;;;;;5.15;3.10;;;19.00;99.90;;;;;;5016754;28;20120;-72
2022/06/16 06:34:53;;;;;;;4.80;3.40;;;19.30;99.90;;;;;;5016805;28;20048;-72
2022/06/16 06:37:22;;;;;;;7.13;3.70;;;19.50;99.90;;;;;;5023040;28;20029;-72
2022/06/16 06:39:49;;;;;;;6.20;3.05;;;19.90;99.10;;;;;;5015501;28;20022;-72
2022/06/16 06:42:15;;;;;;;7.35;2.92;;;20.10;98.90;;;;;;5011544;28;20033;-74
2022/06/16 06:44:41;;;;;;;5.32;3.17;;;20.40;98.00;;;;;;5007255;28;20504;-75
2022/06/16 06:47:07;;;;;;;5.28;3.10;;;20.60;97.40;;;;;;5009692;28;20044;-75
2022/06/16 06:49:32;;;;;;;5.38;2.72;;;20.80;96.30;;;;;;5019077;28;20025;-75
2022/06/16 06:51:58;;;;;;;5.05;3.10;;;21.00;96.60;;;;;;5020928;28;20029;-75
2022/06/16 06:54:24;;;;;;;5.18;3.20;;;21.30;95.30;;;;;;5021018;28;20025;-75
2022/06/16 06:56:51;;;;;;;5.25;2.80;;;21.40;94.30;;;;;;5016757;28;20327;-70
2022/06/16 06:59:18;;;;;;;5.45;2.80;;;21.60;94.00;;;;;;5009252;28;20490;-71
2022/06/16 07:01:46;;;;;;;5.90;2.78;;;21.80;93.70;;;;;;5009567;28;20048;-71
2022/06/16 07:04:11;;;;;;;5.47;2.90;;;22.00;92.60;;;;;;5008138;28;20041;-72
2022/06/16 07:06:38;;;;;;;4.35;2.90;;;22.00;92.50;;;;;;5008562;28;20033;-71
2022/06/16 07:09:03;;;;;;;5.75;2.95;;;21.90;92.40;;;;;;5013293;28;20038;-71
2022/06/16 07:11:29;;;;;;;5.25;2.60;;;21.70;92.00;;;;;;5010880;28;20084;-71
2022/06/16 07:13:55;;;;;;;6.03;2.40;;;21.40;92.90;;;;;;5013811;28;20040;-71
2022/06/16 07:16:21;;;;;;;3.85;2.40;;;21.50;92.60;;;;;;5016737;28;20195;-71
2022/06/16 07:18:48;;;;;;;3.78;2.17;;;21.60;91.50;;;;;;5003109;28;20032;-72
2022/06/16 07:21:14;;;;;;;6.15;2.90;;;21.50;91.60;;;;;;5016845;28;20095;-71
2022/06/16 07:23:41;;;;;;;3.08;2.38;;;21.40;91.50;;;;;;5018912;28;20036;-71
2022/06/16 07:26:08;;;;;;;4.68;2.58;;;21.60;91.90;;;;;;5021000;28;20029;-71
2022/06/16 07:28:34;;;;;;;3.72;2.58;;;21.80;91.40;;;;;;5012792;28;20056;-71
2022/06/16 07:30:59;;;;;;;4.85;2.95;;;22.10;91.00;;;;;;5004689;28;20052;-71
2022/06/16 07:33:25;;;;;;;4.45;2.88;;;22.30;90.20;;;;;;5021317;28;20045;-70
2022/06/16 07:35:52;;;;;;;4.93;2.65;;;22.40;89.70;;;;;;5018859;28;20029;-71
2022/06/16 07:38:18;;;;;;;6.03;2.80;;;22.50;89.40;;;;;;5013904;28;20030;-70
2022/06/16 07:40:44;;;;;;;5.03;2.90;;;22.60;89.70;;;;;;5005243;28;20088;-70
2022/06/16 07:43:09;;;;;;;6.93;2.35;;;22.70;90.00;;;;;;5022037;28;20040;-70
2022/06/16 07:45:37;;;;;;;4.72;2.50;;;22.70;87.90;;;;;;5025554;28;20021;-70
2022/06/16 07:48:05;;;;;;;7.10;2.30;;;22.80;88.20;;;;;;5024469;28;20493;-70
2022/06/16 07:50:33;;;;;;;4.28;2.40;;;22.90;86.50;;;;;;5014479;28;20041;-70
2022/06/16 07:52:59;;;;;;;4.80;2.60;;;23.00;86.20;;;;;;5010480;28;20026;-70
2022/06/16 07:55:24;;;;;;;4.68;2.50;;;23.10;86.30;;;;;;5012752;28;20022;-70
2022/06/16 07:57:51;;;;;;;5.10;2.60;;;23.10;86.80;;;;;;5016730;28;20053;-69
2022/06/16 08:00:23;;;;;;;3.70;2.10;;;23.10;82.70;;;;;;5020295;28;20029;-71
2022/06/16 08:02:49;;;;;;;3.13;1.98;;;23.10;83.60;;;;;;5022998;28;20056;-76
2022/06/16 08:05:15;;;;;;;7.63;2.42;;;23.20;83.30;;;;;;5018501;28;20382;-76
2022/06/16 08:07:43;;;;;;;3.92;2.40;;;23.50;83.10;;;;;;5013535;28;20026;-76
2022/06/16 08:10:15;;;;;;;8.50;2.55;;;23.60;82.80;;;;;;5027384;28;20036;-72
2022/06/16 08:12:41;;;;;;;7.72;2.33;;;23.80;83.10;;;;;;5029610;28;20036;-71
2022/06/16 08:15:07;;;;;;;6.05;2.60;;;23.70;81.60;;;;;;5019403;28;20028;-73
2022/06/16 08:17:36;;;;;;;6.63;2.50;;;23.70;82.00;;;;;;5026338;28;20030;-72
2022/06/16 08:20:03;;;;;;;4.40;2.40;;;23.70;82.90;;;;;;5009009;28;20026;-72
2022/06/16 08:22:29;;;;;;;4.35;2.40;;;23.80;82.80;;;;;;5010998;28;20030;-71
2022/06/16 08:24:55;;;;;;;3.67;2.22;;;23.80;80.40;;;;;;5028099;28;20028;-72
2022/06/16 08:27:24;;;;;;;4.00;2.67;;;23.70;80.70;;;;;;5025013;28;20029;-72
2022/06/16 08:29:50;;;;;;;4.18;2.35;;;23.70;79.20;;;;;;5015480;28;20025;-72
2022/06/16 08:32:18;;;;;;;4.85;2.50;;;23.60;78.80;;;;;;5027159;28;20037;-72
2022/06/16 08:34:44;;;;;;;5.68;2.78;;;23.60;80.00;;;;;;5024768;28;20068;-72
2022/06/16 08:37:10;;;;;;;3.60;2.20;;;23.60;80.10;;;;;;5010856;28;20483;-72
2022/06/16 08:39:36;;;;;;;5.50;2.30;;;23.70;79.60;;;;;;5008847;28;20026;-71
2022/06/16 08:42:10;;;;;;;8.00;2.55;;;23.90;80.50;;;;;;5028992;28;20053;-71
2022/06/16 08:44:48;;;;;;;5.35;2.38;;;24.00;78.70;;;;;;5024618;28;20067;-72
2022/06/16 08:47:26;;;;;;;4.05;2.13;;;24.00;80.90;;;;;;5029276;28;20033;-72
2022/06/16 08:50:07;;;;;;;3.60;2.33;;;24.00;80.70;;;;;;5007705;28;20671;-72
2022/06/16 08:52:55;;;;;;;4.53;2.30;;;24.00;77.10;;;;;;5020203;28;20045;-72
2022/06/16 08:55:37;;;;;;;4.07;2.47;;;24.00;75.20;;;;;;5011966;28;20026;-72
2022/06/16 08:58:10;;;;;;;6.40;2.55;;;24.10;75.60;;;;;;5020626;28;20110;-72
2022/06/16 09:00:38;;;;;;;3.15;2.20;;;24.10;75.10;;;;;;5023426;28;20034;-72
2022/06/16 09:03:15;;;;;;;5.78;2.63;;;24.20;75.70;;;;;;5009802;28;20088;-72
2022/06/16 09:05:57;;;;;;;4.32;2.00;;;24.20;74.80;;;;;;5010391;28;20034;-71
2022/06/16 09:08:57;;;;;;;5.63;2.55;;;24.30;74.20;;;;;;5006967;28;20022;-72
2022/06/16 09:11:34;;;;;;;4.82;2.40;;;24.40;74.90;;;;;;5009054;28;20133;-72
2022/06/16 09:17:53;;;;;;;10.10;2.33;;;24.30;74.30;;;;;;5009217;28;20033;-71
2022/06/16 09:20:36;;;;;;;7.00;2.90;;;24.10;72.80;;;;;;4996186;28;20030;-72
2022/06/16 09:23:33;;;;;;;4.80;2.38;;;24.10;74.80;;;;;;5014076;28;20180;-72
2022/06/16 09:26:18;;;;;;;5.63;2.38;;;24.20;74.80;;;;;;5008823;28;20109;-72
2022/06/16 09:28:55;;;;;;;6.88;2.40;;;24.20;73.00;;;;;;5010177;28;20075;-72
2022/06/16 09:31:30;;;;;;;4.90;2.35;;;24.20;73.70;;;;;;5010158;28;20136;-71
2022/06/16 09:34:08;;;;;;;6.65;2.75;;;24.30;72.70;;;;;;5011770;28;20041;-72
2022/06/16 09:36:42;;;;;;;5.78;2.30;;;24.30;71.50;;;;;;5028072;28;20088;-72
2022/06/16 09:39:31;;;;;;;7.13;2.53;;;24.30;72.40;;;;;;5018611;28;20390;-72
2022/06/16 09:44:55;;;;;;;8.45;2.38;;;24.40;74.00;;;;;;5016901;28;20544;-72
2022/06/16 09:47:31;;;;;;;4.88;2.30;;;24.30;72.50;;;;;;5026640;28;20532;-72
2022/06/16 09:50:36;;;;;;;4.80;2.47;;;24.40;72.20;;;;;;4664701;28;10000006;-73
2022/06/16 09:53:40;;;;;;;5.15;2.08;;;24.40;73.70;;;;;;5002466;28;20048;-73
2022/06/16 09:56:18;;;;;;;5.72;2.75;;;24.50;72.40;;;;;;5010354;28;20564;-73
2022/06/16 09:58:50;;;;;;;3.90;2.22;;;24.60;69.90;;;;;;5002804;28;20034;-73
2022/06/16 10:01:19;;;;;;;3.97;2.15;;;24.70;70.80;;;;;;5009857;28;20034;-73
2022/06/16 10:04:01;;;;;;;6.80;2.30;;;24.60;70.40;;;;;;5015245;28;20449;-73
2022/06/16 10:06:51;;;;;;;5.18;2.30;;;24.60;69.30;;;;;;5014460;28;20112;-72
2022/06/16 10:09:50;;;;;;;5.65;2.60;;;24.70;70.00;;;;;;5011699;28;20080;-72
2022/06/16 10:12:46;;;;;;;2.72;1.70;;;24.60;68.90;;;;;;5022962;28;20029;-72
2022/06/16 10:15:43;;;;;;;5.07;2.10;;;24.50;70.00;;;;;;5021653;28;20057;-72
2022/06/16 10:18:10;;;;;;;3.97;2.10;;;24.50;73.70;;;;;;5025765;28;20041;-72
2022/06/16 10:20:37;;;;;;;4.20;2.17;;;24.50;69.60;;;;;;5012740;28;20022;-72
2022/06/16 10:23:16;;;;;;;5.50;2.38;;;24.60;70.50;;;;;;5008216;28;20112;-72
2022/06/16 10:25:47;;;;;;;6.28;2.50;;;24.50;72.00;;;;;;5010779;28;20044;-72
2022/06/16 10:28:28;;;;;;;3.63;2.10;;;24.50;70.60;;;;;;5023424;28;20033;-73
2022/06/16 10:30:56;;;;;;;4.28;2.10;;;24.50;69.10;;;;;;5008795;28;20030;-72
2022/06/16 10:33:25;;;;;;;3.88;2.05;;;24.40;69.70;;;;;;5017430;28;20045;-76
2022/06/16 10:36:27;;;;;;;4.70;2.00;;;24.40;71.80;;;;;;5006278;28;20447;-75
2022/06/16 10:39:17;;;;;;;3.95;2.03;;;24.50;67.80;;;;;;4980226;28;20306;-75
2022/06/16 10:41:55;;;;;;;4.03;2.10;;;24.60;68.90;;;;;;5005691;28;20041;-75
2022/06/16 10:44:24;;;;;;;3.42;1.90;;;24.70;69.60;;;;;;5007566;28;20489;-75
2022/06/16 10:46:55;;;;;;;3.97;2.10;;;24.80;68.70;;;;;;5014494;28;20092;-75
2022/06/16 10:49:32;;;;;;;5.05;1.95;;;24.80;69.10;;;;;;5015718;28;20216;-75
2022/06/16 10:52:06;;;;;;;6.03;1.60;;;24.80;70.70;;;;;;5026653;28;20370;-75
2022/06/16 10:54:35;;;;;;;3.42;1.65;;;24.80;66.80;;;;;;5009067;28;20021;-75
2022/06/16 10:57:15;;;;;;;2.65;1.70;;;24.80;65.00;;;;;;5007490;28;20816;-75
2022/06/16 10:59:50;;;;;;;6.97;1.90;;;24.90;65.30;;;;;;5004637;28;20041;-75
2022/06/16 11:02:26;;;;;;;4.93;1.70;;;25.00;66.90;;;;;;5007447;28;20466;-76
2022/06/16 11:05:10;;;;;;;5.47;2.20;;;25.20;65.20;;;;;;5011985;28;20029;-75
2022/06/16 11:07:40;;;;;;;3.72;2.05;;;25.30;65.10;;;;;;5006797;28;20502;-76
2022/06/16 11:10:10;;;;;;;6.10;1.90;;;25.20;64.00;;;;;;5012293;28;20029;-75
2022/06/16 11:12:40;;;;;;;3.92;1.70;;;25.20;64.70;;;;;;5015108;28;20453;-75
2022/06/16 11:15:26;;;;;;;3.40;2.10;;;25.10;63.70;;;;;;5010574;28;20486;-75
2022/06/16 11:17:59;;;;;;;4.30;1.80;;;25.10;65.70;;;;;;5028966;28;20028;-75
2022/06/16 11:20:44;;;;;;;2.60;1.65;;;25.10;62.70;;;;;;5011235;28;20091;-75
2022/06/16 11:23:22;;;;;;;2.97;1.65;;;25.00;62.90;;;;;;5027618;28;20106;-75
2022/06/16 11:26:01;;;;;;;4.72;1.77;;;25.10;62.60;;;;;;5029982;28;20120;-75
2022/06/16 11:28:28;;;;;;;5.03;2.08;;;25.10;62.60;;;;;;5013992;28;20048;-75
2022/06/16 11:30:59;;;;;;;3.00;1.70;;;25.20;65.00;;;;;;5019320;28;20034;-75
2022/06/16 11:34:10;;;;;;;2.42;1.50;;;25.30;63.40;;;;;;5011886;28;20099;-75
2022/06/16 11:37:05;;;;;;;3.45;1.85;;;25.30;62.50;;;;;;4999731;28;20098;-75
2022/06/16 11:39:43;;;;;;;5.82;1.80;;;25.40;61.80;;;;;;5026875;28;20052;-75
2022/06/16 11:42:21;;;;;;;3.80;1.92;;;25.40;62.40;;;;;;5027619;28;20025;-75
2022/06/16 11:44:49;;;;;;;3.95;1.90;;;25.40;65.40;;;;;;5023237;28;20466;-75
2022/06/16 11:47:53;;;;;;;2.95;1.95;;;25.50;60.80;;;;;;5017029;28;20200;-75
2022/06/16 11:50:28;;;;;;;3.15;1.88;;;25.50;61.20;;;;;;5027764;28;20030;-75
2022/06/16 11:52:59;;;;;;;4.85;1.80;;;25.60;60.40;;;;;;5028317;28;20080;-75
2022/06/16 11:55:40;;;;;;;3.13;1.73;;;25.50;60.30;;;;;;5020212;28;20053;-74
2022/06/16 11:58:24;;;;;;;2.88;1.65;;;25.60;61.80;;;;;;5020315;28;20037;-75
2022/06/16 12:00:57;;;;;;;;;;;25.70;66.10;;;;;;5016087;28;20029;-75
2022/06/16 12:04:07;;;;;;;4.85;1.98;;;25.60;65.10;;;;;;5020472;28;20757;-74
2022/06/16 12:07:08;;;;;;;3.30;1.45;;;25.70;64.00;;;;;;5005522;28;20095;-75
2022/06/16 12:09:49;;;;;;;3.30;1.35;;;25.70;69.70;;;;;;4977196;28;20453;-75
2022/06/16 12:12:25;;;;;;;3.08;1.60;;;25.80;71.50;;;;;;5019646;28;20504;-75
2022/06/16 12:15:15;;;;;;;3.67;1.60;;;25.80;72.80;;;;;;5020047;28;20026;-75
2022/06/16 12:17:47;;;;;;;4.28;1.58;;;25.70;73.60;;;;;;5026448;28;20482;-75
2022/06/16 12:20:51;;;;;;;4.75;1.30;;;25.70;73.20;;;;;;5013495;28;21052;-74
2022/06/16 12:23:35;;;;;;;1.80;1.10;;;25.70;71.90;;;;;;5018678;28;20040;-75
2022/06/16 12:26:04;;;;;;;3.33;1.10;;;;;;;;;;5028950;28;20112;-75
2022/06/16 12:28:48;;;;;;;4.50;1.40;;;;;;;;;;5023150;28;20033;-75
2022/06/16 12:31:14;;;;;;;3.80;1.10;;;26.20;56.60;;;;;;5018194;28;20021;-75
2022/06/16 12:33:54;;;;;;;5.88;1.27;;;26.10;54.30;;;;;;5012169;28;20049;-74
2022/06/16 12:36:27;;;;;;;2.70;1.23;;;26.10;54.80;;;;;;5015206;28;20516;-74
2022/06/16 12:39:01;;;;;;;;;;;26.00;55.10;;;;;;5012749;28;20034;-74
2022/06/16 12:41:50;;;;;;;3.08;1.00;;;25.80;55.00;;;;;;5012556;28;20268;-75
2022/06/16 12:44:28;;;;;;;1.95;0.90;;;25.70;54.30;;;;;;5002476;28;20500;-74
2022/06/16 12:46:59;;;;;;;1.45;1.00;;;25.70;53.50;;;;;;5017233;28;20029;-74
2022/06/16 12:49:36;;;;;;;4.50;1.20;;;25.80;54.30;;;;;;5013498;28;20041;-74
2022/06/16 12:52:14;;;;;;;3.85;1.30;;;25.90;56.80;;;;;;5015726;28;20574;-73
2022/06/16 12:54:47;;;;;;;2.67;1.30;;;25.70;57.60;;;;;;5011264;28;20053;-75
2022/06/16 12:57:17;;;;;;;1.60;1.10;;;25.60;56.20;;;;;;5005388;28;20047;-75
2022/06/16 12:59:56;;;;;;;4.10;1.20;;;25.70;57.90;;;;;;5023312;28;20401;-74
2022/06/16 13:02:26;;;;;;;5.00;1.25;;;25.90;55.60;;;;;;5010328;28;20411;-73
2022/06/16 13:04:55;;;;;;;3.83;1.30;;;26.00;56.60;;;;;;5021939;28;20465;-74
2022/06/16 13:07:24;;;;;;;2.13;1.05;;;25.80;55.90;;;;;;5023326;28;20121;-75
2022/06/16 13:09:50;;;;;;;2.38;1.23;;;25.80;56.40;;;;;;5014905;28;20482;-75
2022/06/16 13:12:24;;;;;;;1.63;1.00;;;25.90;56.40;;;;;;5022754;28;20033;-74
2022/06/16 13:14:57;;;;;;;2.60;1.10;;;26.00;57.00;;;;;;5024803;28;20144;-74
2022/06/16 13:17:27;;;;;;;2.42;1.10;;;26.10;56.70;;;;;;5016656;28;20449;-74
2022/06/16 13:20:00;;;;;;;3.22;1.25;;;26.20;56.60;;;;;;5013523;28;20041;-74
2022/06/16 13:22:33;;;;;;;;;;;26.30;56.20;;;;;;5024416;28;20041;-75
2022/06/16 13:25:04;;;;;;;2.25;1.08;;;26.20;55.90;;;;;;5026409;28;19931;-73
2022/06/16 13:27:38;;;;;;;4.38;1.10;;;26.10;56.50;;;;;;5016926;28;20050;-74
2022/06/16 13:30:04;;;;;;;4.22;1.30;;;26.00;55.90;;;;;;5020219;28;20123;-73
2022/06/16 13:32:37;;;;;;;1.85;1.15;;;25.70;56.80;;;;;;5023551;28;20086;-74